sensor_id;sensor_type;location;lat;lon;timestamp;P1;durP1;ratioP1;P2;durP2;ratioP2
6348;SDS011;3207;42.648;23.406;2023-05-01T00:01:55;5.85;;;5.32;;
6348;SDS011;3207;42.648;23.406;2023-05-01T00:04:22;6.70;;;6.10;;
6348;SDS011;3207;42.648;23.406;2023-05-01T00:06:48;5.88;;;5.30;;
6348;SDS011;3207;42.648;23.406;2023-05-01T00:09:15;8.48;;;6.38;;
6348;SDS011;3207;42.648;23.406;2023-05-01T00:11:44;6.07;;;5.45;;
6348;SDS011;3207;42.648;23.406;2023-05-01T00:14:11;8.85;;;6.03;;
6348;SDS011;3207;42.648;23.406;2023-05-01T00:16:38;9.57;;;6.15;;
6348;SDS011;3207;42.648;23.406;2023-05-01T00:19:05;11.13;;;6.90;;
6348;SDS011;3207;42.648;23.406;2023-05-01T00:21:32;10.27;;;6.40;;
6348;SDS011;3207;42.648;23.406;2023-05-01T00:23:59;10.68;;;7.10;;
6348;SDS011;3207;42.648;23.406;2023-05-01T00:26:25;11.60;;;8.45;;
6348;SDS011;3207;42.648;23.406;2023-05-01T00:28:56;15.30;;;7.60;;
6348;SDS011;3207;42.648;23.406;2023-05-01T00:31:23;9.38;;;7.72;;
6348;SDS011;3207;42.648;23.406;2023-05-01T00:33:50;10.73;;;8.00;;
6348;SDS011;3207;42.648;23.406;2023-05-01T00:36:17;14.75;;;8.25;;
6348;SDS011;3207;42.648;23.406;2023-05-01T00:38:44;14.40;;;8.40;;
6348;SDS011;3207;42.648;23.406;2023-05-01T00:41:11;9.52;;;7.65;;
6348;SDS011;3207;42.648;23.406;2023-05-01T00:43:38;9.10;;;7.20;;
6348;SDS011;3207;42.648;23.406;2023-05-01T00:46:06;12.52;;;8.18;;
6348;SDS011;3207;42.648;23.406;2023-05-01T00:48:33;9.77;;;7.97;;
6348;SDS011;3207;42.648;23.406;2023-05-01T00:51:01;7.97;;;7.13;;
6348;SDS011;3207;42.648;23.406;2023-05-01T00:53:32;13.68;;;7.68;;
6348;SDS011;3207;42.648;23.406;2023-05-01T00:55:59;7.55;;;6.85;;
6348;SDS011;3207;42.648;23.406;2023-05-01T00:58:26;9.27;;;8.00;;
6348;SDS011;3207;42.648;23.406;2023-05-01T01:00:54;9.60;;;7.65;;
6348;SDS011;3207;42.648;23.406;2023-05-01T01:03:22;7.93;;;7.13;;
6348;SDS011;3207;42.648;23.406;2023-05-01T01:05:50;8.45;;;6.80;;
6348;SDS011;3207;42.648;23.406;2023-05-01T01:08:22;11.68;;;7.05;;
6348;SDS011;3207;42.648;23.406;2023-05-01T01:10:54;8.80;;;6.72;;
6348;SDS011;3207;42.648;23.406;2023-05-01T01:13:27;9.13;;;7.50;;
6348;SDS011;3207;42.648;23.406;2023-05-01T01:16:00;9.80;;;7.65;;
6348;SDS011;3207;42.648;23.406;2023-05-01T01:18:36;9.93;;;7.38;;
6348;SDS011;3207;42.648;23.406;2023-05-01T01:21:07;8.75;;;6.95;;
6348;SDS011;3207;42.648;23.406;2023-05-01T01:26:50;7.63;;;6.57;;
6348;SDS011;3207;42.648;23.406;2023-05-01T01:29:38;8.55;;;6.65;;
6348;SDS011;3207;42.648;23.406;2023-05-01T01:32:29;8.35;;;7.45;;
6348;SDS011;3207;42.648;23.406;2023-05-01T01:35:09;7.80;;;7.00;;
6348;SDS011;3207;42.648;23.406;2023-05-01T01:37:42;7.22;;;6.38;;
6348;SDS011;3207;42.648;23.406;2023-05-01T01:40:16;8.15;;;6.75;;
6348;SDS011;3207;42.648;23.406;2023-05-01T01:42:48;8.95;;;6.97;;
6348;SDS011;3207;42.648;23.406;2023-05-01T01:45:21;10.73;;;6.97;;
6348;SDS011;3207;42.648;23.406;2023-05-01T01:47:49;10.65;;;7.35;;
6348;SDS011;3207;42.648;23.406;2023-05-01T01:50:19;11.38;;;7.10;;
6348;SDS011;3207;42.648;23.406;2023-05-01T01:52:49;9.45;;;6.57;;
6348;SDS011;3207;42.648;23.406;2023-05-01T01:55:20;7.40;;;6.68;;
6348;SDS011;3207;42.648;23.406;2023-05-01T01:57:51;9.07;;;7.03;;
6348;SDS011;3207;42.648;23.406;2023-05-01T02:00:19;8.45;;;7.50;;
6348;SDS011;3207;42.648;23.406;2023-05-01T02:02:48;9.15;;;7.88;;
6348;SDS011;3207;42.648;23.406;2023-05-01T02:05:18;10.93;;;7.75;;
6348;SDS011;3207;42.648;23.406;2023-05-01T02:07:47;10.95;;;7.32;;
6348;SDS011;3207;42.648;23.406;2023-05-01T02:10:15;10.65;;;8.02;;
6348;SDS011;3207;42.648;23.406;2023-05-01T02:12:45;13.23;;;8.38;;
6348;SDS011;3207;42.648;23.406;2023-05-01T02:15:14;13.10;;;8.32;;
6348;SDS011;3207;42.648;23.406;2023-05-01T02:17:43;8.98;;;7.38;;
6348;SDS011;3207;42.648;23.406;2023-05-01T02:20:11;11.82;;;8.50;;
6348;SDS011;3207;42.648;23.406;2023-05-01T02:22:41;9.93;;;8.48;;
6348;SDS011;3207;42.648;23.406;2023-05-01T02:25:10;10.95;;;8.40;;
6348;SDS011;3207;42.648;23.406;2023-05-01T02:27:42;9.55;;;7.47;;
6348;SDS011;3207;42.648;23.406;2023-05-01T02:30:12;13.23;;;7.75;;
6348;SDS011;3207;42.648;23.406;2023-05-01T02:32:38;8.73;;;6.95;;
6348;SDS011;3207;42.648;23.406;2023-05-01T02:35:06;9.40;;;6.75;;
6348;SDS011;3207;42.648;23.406;2023-05-01T02:37:33;10.65;;;6.93;;
6348;SDS011;3207;42.648;23.406;2023-05-01T02:40:01;11.23;;;8.23;;
6348;SDS011;3207;42.648;23.406;2023-05-01T02:42:29;11.50;;;7.57;;
6348;SDS011;3207;42.648;23.406;2023-05-01T02:45:00;8.88;;;6.85;;
6348;SDS011;3207;42.648;23.406;2023-05-01T02:47:29;8.57;;;6.53;;
6348;SDS011;3207;42.648;23.406;2023-05-01T02:50:00;11.35;;;6.85;;
6348;SDS011;3207;42.648;23.406;2023-05-01T02:52:28;8.90;;;7.10;;
6348;SDS011;3207;42.648;23.406;2023-05-01T02:54:55;11.40;;;6.70;;
6348;SDS011;3207;42.648;23.406;2023-05-01T02:57:24;11.45;;;6.82;;
6348;SDS011;3207;42.648;23.406;2023-05-01T02:59:51;17.90;;;7.72;;
6348;SDS011;3207;42.648;23.406;2023-05-01T03:02:18;8.98;;;6.72;;
6348;SDS011;3207;42.648;23.406;2023-05-01T03:04:45;10.30;;;7.05;;
6348;SDS011;3207;42.648;23.406;2023-05-01T03:07:11;7.90;;;6.53;;
6348;SDS011;3207;42.648;23.406;2023-05-01T03:09:38;9.40;;;6.70;;
6348;SDS011;3207;42.648;23.406;2023-05-01T03:12:05;6.82;;;5.78;;
6348;SDS011;3207;42.648;23.406;2023-05-01T03:14:33;8.77;;;6.30;;
6348;SDS011;3207;42.648;23.406;2023-05-01T03:17:00;11.02;;;6.75;;
6348;SDS011;3207;42.648;23.406;2023-05-01T03:19:27;8.57;;;6.32;;
6348;SDS011;3207;42.648;23.406;2023-05-01T03:21:54;8.85;;;6.75;;
6348;SDS011;3207;42.648;23.406;2023-05-01T03:24:21;8.68;;;6.93;;
6348;SDS011;3207;42.648;23.406;2023-05-01T03:26:49;9.43;;;7.10;;
6348;SDS011;3207;42.648;23.406;2023-05-01T03:29:16;8.07;;;7.05;;
6348;SDS011;3207;42.648;23.406;2023-05-01T03:31:44;7.20;;;6.32;;
6348;SDS011;3207;42.648;23.406;2023-05-01T03:34:11;8.32;;;6.97;;
6348;SDS011;3207;42.648;23.406;2023-05-01T03:36:37;10.23;;;7.32;;
6348;SDS011;3207;42.648;23.406;2023-05-01T03:39:04;7.80;;;6.57;;
6348;SDS011;3207;42.648;23.406;2023-05-01T03:41:32;8.95;;;6.95;;
6348;SDS011;3207;42.648;23.406;2023-05-01T03:43:59;8.23;;;7.22;;
6348;SDS011;3207;42.648;23.406;2023-05-01T03:46:26;7.90;;;7.13;;
6348;SDS011;3207;42.648;23.406;2023-05-01T03:48:54;8.63;;;7.60;;
6348;SDS011;3207;42.648;23.406;2023-05-01T03:51:21;10.10;;;7.25;;
6348;SDS011;3207;42.648;23.406;2023-05-01T03:53:48;8.68;;;6.45;;
6348;SDS011;3207;42.648;23.406;2023-05-01T03:56:15;8.23;;;7.15;;
6348;SDS011;3207;42.648;23.406;2023-05-01T03:58:42;7.32;;;6.30;;
6348;SDS011;3207;42.648;23.406;2023-05-01T04:01:09;7.63;;;6.03;;
6348;SDS011;3207;42.648;23.406;2023-05-01T04:03:35;10.00;;;6.72;;
6348;SDS011;3207;42.648;23.406;2023-05-01T04:06:04;9.13;;;7.72;;
6348;SDS011;3207;42.648;23.406;2023-05-01T04:08:31;11.52;;;6.97;;
6348;SDS011;3207;42.648;23.406;2023-05-01T04:10:58;10.10;;;7.43;;
6348;SDS011;3207;42.648;23.406;2023-05-01T04:13:25;9.30;;;7.57;;
6348;SDS011;3207;42.648;23.406;2023-05-01T04:15:51;12.35;;;7.30;;
6348;SDS011;3207;42.648;23.406;2023-05-01T04:18:19;8.27;;;6.40;;
6348;SDS011;3207;42.648;23.406;2023-05-01T04:20:46;10.20;;;7.43;;
6348;SDS011;3207;42.648;23.406;2023-05-01T04:23:14;7.57;;;6.60;;
6348;SDS011;3207;42.648;23.406;2023-05-01T04:25:41;11.23;;;7.72;;
6348;SDS011;3207;42.648;23.406;2023-05-01T04:28:09;9.82;;;6.55;;
6348;SDS011;3207;42.648;23.406;2023-05-01T04:30:36;7.75;;;6.35;;
6348;SDS011;3207;42.648;23.406;2023-05-01T04:33:03;8.50;;;6.70;;
6348;SDS011;3207;42.648;23.406;2023-05-01T04:35:35;8.23;;;5.72;;
6348;SDS011;3207;42.648;23.406;2023-05-01T04:38:03;9.80;;;6.63;;
6348;SDS011;3207;42.648;23.406;2023-05-01T04:40:31;11.40;;;7.15;;
6348;SDS011;3207;42.648;23.406;2023-05-01T04:42:58;8.82;;;6.80;;
6348;SDS011;3207;42.648;23.406;2023-05-01T04:45:25;8.18;;;5.55;;
6348;SDS011;3207;42.648;23.406;2023-05-01T04:47:52;8.70;;;6.47;;
6348;SDS011;3207;42.648;23.406;2023-05-01T04:50:19;7.95;;;7.05;;
6348;SDS011;3207;42.648;23.406;2023-05-01T04:52:46;8.68;;;6.63;;
6348;SDS011;3207;42.648;23.406;2023-05-01T04:55:13;7.47;;;6.53;;
6348;SDS011;3207;42.648;23.406;2023-05-01T04:57:42;10.18;;;6.70;;
6348;SDS011;3207;42.648;23.406;2023-05-01T05:00:09;6.88;;;6.18;;
6348;SDS011;3207;42.648;23.406;2023-05-01T05:02:37;7.97;;;5.57;;
6348;SDS011;3207;42.648;23.406;2023-05-01T05:05:04;9.75;;;6.78;;
6348;SDS011;3207;42.648;23.406;2023-05-01T05:07:31;11.30;;;7.57;;
6348;SDS011;3207;42.648;23.406;2023-05-01T05:09:58;7.00;;;6.18;;
6348;SDS011;3207;42.648;23.406;2023-05-01T05:12:24;8.93;;;7.38;;
6348;SDS011;3207;42.648;23.406;2023-05-01T05:14:52;7.38;;;6.68;;
6348;SDS011;3207;42.648;23.406;2023-05-01T05:17:19;8.98;;;6.93;;
6348;SDS011;3207;42.648;23.406;2023-05-01T05:19:46;9.23;;;7.20;;
6348;SDS011;3207;42.648;23.406;2023-05-01T05:22:13;7.47;;;6.63;;
6348;SDS011;3207;42.648;23.406;2023-05-01T05:24:40;9.73;;;7.10;;
6348;SDS011;3207;42.648;23.406;2023-05-01T05:27:06;8.20;;;6.57;;
6348;SDS011;3207;42.648;23.406;2023-05-01T05:29:33;7.70;;;6.22;;
6348;SDS011;3207;42.648;23.406;2023-05-01T05:32:02;6.93;;;5.25;;
6348;SDS011;3207;42.648;23.406;2023-05-01T05:34:28;5.57;;;5.07;;
6348;SDS011;3207;42.648;23.406;2023-05-01T05:36:55;5.72;;;5.22;;
6348;SDS011;3207;42.648;23.406;2023-05-01T05:39:22;7.03;;;5.57;;
6348;SDS011;3207;42.648;23.406;2023-05-01T05:41:49;8.90;;;5.22;;
6348;SDS011;3207;42.648;23.406;2023-05-01T05:44:17;5.90;;;5.30;;
6348;SDS011;3207;42.648;23.406;2023-05-01T05:46:44;6.35;;;4.72;;
6348;SDS011;3207;42.648;23.406;2023-05-01T05:49:13;7.35;;;5.80;;
6348;SDS011;3207;42.648;23.406;2023-05-01T05:51:39;6.22;;;5.63;;
6348;SDS011;3207;42.648;23.406;2023-05-01T05:54:06;7.38;;;5.63;;
6348;SDS011;3207;42.648;23.406;2023-05-01T05:56:33;6.30;;;5.68;;
6348;SDS011;3207;42.648;23.406;2023-05-01T05:59:00;7.30;;;6.13;;
6348;SDS011;3207;42.648;23.406;2023-05-01T06:01:28;6.32;;;5.70;;
6348;SDS011;3207;42.648;23.406;2023-05-01T06:03:56;7.85;;;5.90;;
6348;SDS011;3207;42.648;23.406;2023-05-01T06:06:24;6.70;;;6.05;;
6348;SDS011;3207;42.648;23.406;2023-05-01T06:08:51;6.85;;;6.20;;
6348;SDS011;3207;42.648;23.406;2023-05-01T06:11:18;7.00;;;6.30;;
6348;SDS011;3207;42.648;23.406;2023-05-01T06:13:46;8.60;;;7.30;;
6348;SDS011;3207;42.648;23.406;2023-05-01T06:16:13;7.32;;;6.45;;
6348;SDS011;3207;42.648;23.406;2023-05-01T06:18:40;7.57;;;6.40;;
6348;SDS011;3207;42.648;23.406;2023-05-01T06:21:07;8.40;;;5.55;;
6348;SDS011;3207;42.648;23.406;2023-05-01T06:23:35;5.13;;;4.32;;
6348;SDS011;3207;42.648;23.406;2023-05-01T06:26:02;5.30;;;4.80;;
6348;SDS011;3207;42.648;23.406;2023-05-01T06:28:29;5.18;;;4.68;;
6348;SDS011;3207;42.648;23.406;2023-05-01T06:30:55;4.50;;;3.92;;
6348;SDS011;3207;42.648;23.406;2023-05-01T06:33:22;5.45;;;4.07;;
6348;SDS011;3207;42.648;23.406;2023-05-01T06:35:49;6.18;;;4.40;;
6348;SDS011;3207;42.648;23.406;2023-05-01T06:38:16;8.70;;;4.95;;
6348;SDS011;3207;42.648;23.406;2023-05-01T06:40:44;4.75;;;4.35;;
6348;SDS011;3207;42.648;23.406;2023-05-01T06:43:13;4.80;;;4.40;;
6348;SDS011;3207;42.648;23.406;2023-05-01T06:45:41;6.00;;;4.60;;
6348;SDS011;3207;42.648;23.406;2023-05-01T06:48:07;4.38;;;3.95;;
6348;SDS011;3207;42.648;23.406;2023-05-01T06:50:34;6.82;;;4.70;;
6348;SDS011;3207;42.648;23.406;2023-05-01T06:53:01;6.07;;;4.50;;
6348;SDS011;3207;42.648;23.406;2023-05-01T06:55:28;4.97;;;4.30;;
6348;SDS011;3207;42.648;23.406;2023-05-01T06:57:57;4.60;;;4.20;;
6348;SDS011;3207;42.648;23.406;2023-05-01T07:00:24;4.63;;;4.22;;
6348;SDS011;3207;42.648;23.406;2023-05-01T07:02:50;4.47;;;4.03;;
6348;SDS011;3207;42.648;23.406;2023-05-01T07:05:17;4.38;;;3.88;;
6348;SDS011;3207;42.648;23.406;2023-05-01T07:07:44;5.25;;;4.00;;
6348;SDS011;3207;42.648;23.406;2023-05-01T07:10:11;5.25;;;4.18;;
6348;SDS011;3207;42.648;23.406;2023-05-01T07:12:38;4.40;;;3.95;;
6348;SDS011;3207;42.648;23.406;2023-05-01T07:15:06;4.25;;;3.70;;
6348;SDS011;3207;42.648;23.406;2023-05-01T07:17:34;7.18;;;4.35;;
6348;SDS011;3207;42.648;23.406;2023-05-01T07:20:01;5.22;;;4.40;;
6348;SDS011;3207;42.648;23.406;2023-05-01T07:22:29;3.97;;;3.58;;
6348;SDS011;3207;42.648;23.406;2023-05-01T07:24:56;5.18;;;4.25;;
6348;SDS011;3207;42.648;23.406;2023-05-01T07:27:22;5.20;;;4.68;;
6348;SDS011;3207;42.648;23.406;2023-05-01T07:29:49;7.90;;;4.90;;
6348;SDS011;3207;42.648;23.406;2023-05-01T07:32:18;4.15;;;3.75;;
6348;SDS011;3207;42.648;23.406;2023-05-01T07:34:45;4.05;;;3.75;;
6348;SDS011;3207;42.648;23.406;2023-05-01T07:37:12;4.45;;;4.05;;
6348;SDS011;3207;42.648;23.406;2023-05-01T07:39:38;4.75;;;4.35;;
6348;SDS011;3207;42.648;23.406;2023-05-01T07:42:05;4.55;;;4.18;;
6348;SDS011;3207;42.648;23.406;2023-05-01T07:44:32;6.30;;;4.82;;
6348;SDS011;3207;42.648;23.406;2023-05-01T07:47:02;4.88;;;4.47;;
6348;SDS011;3207;42.648;23.406;2023-05-01T07:49:35;4.70;;;4.20;;
6348;SDS011;3207;42.648;23.406;2023-05-01T07:52:02;6.10;;;4.55;;
6348;SDS011;3207;42.648;23.406;2023-05-01T07:54:31;6.75;;;4.90;;
6348;SDS011;3207;42.648;23.406;2023-05-01T07:56:58;4.60;;;4.20;;
6348;SDS011;3207;42.648;23.406;2023-05-01T07:59:25;5.47;;;4.78;;
6348;SDS011;3207;42.648;23.406;2023-05-01T08:01:52;5.45;;;4.25;;
6348;SDS011;3207;42.648;23.406;2023-05-01T08:04:19;5.22;;;4.72;;
6348;SDS011;3207;42.648;23.406;2023-05-01T08:06:48;4.43;;;3.88;;
6348;SDS011;3207;42.648;23.406;2023-05-01T08:09:15;4.68;;;4.30;;
6348;SDS011;3207;42.648;23.406;2023-05-01T08:11:42;5.05;;;4.53;;
6348;SDS011;3207;42.648;23.406;2023-05-01T08:14:09;8.02;;;4.95;;
6348;SDS011;3207;42.648;23.406;2023-05-01T08:16:36;5.13;;;4.30;;
6348;SDS011;3207;42.648;23.406;2023-05-01T08:19:02;4.82;;;4.40;;
6348;SDS011;3207;42.648;23.406;2023-05-01T08:21:29;5.55;;;4.38;;
6348;SDS011;3207;42.648;23.406;2023-05-01T08:23:57;5.43;;;3.80;;
6348;SDS011;3207;42.648;23.406;2023-05-01T08:26:24;6.80;;;4.57;;
6348;SDS011;3207;42.648;23.406;2023-05-01T08:28:51;4.35;;;3.92;;
6348;SDS011;3207;42.648;23.406;2023-05-01T08:31:18;6.15;;;4.18;;
6348;SDS011;3207;42.648;23.406;2023-05-01T08:33:45;6.82;;;5.10;;
6348;SDS011;3207;42.648;23.406;2023-05-01T08:36:12;7.68;;;4.97;;
6348;SDS011;3207;42.648;23.406;2023-05-01T08:38:39;6.10;;;4.53;;
6348;SDS011;3207;42.648;23.406;2023-05-01T08:41:07;5.07;;;4.65;;
6348;SDS011;3207;42.648;23.406;2023-05-01T08:43:35;4.95;;;4.47;;
6348;SDS011;3207;42.648;23.406;2023-05-01T08:46:02;5.13;;;4.38;;
6348;SDS011;3207;42.648;23.406;2023-05-01T08:48:33;4.97;;;4.55;;
6348;SDS011;3207;42.648;23.406;2023-05-01T08:51:02;4.18;;;3.83;;
6348;SDS011;3207;42.648;23.406;2023-05-01T08:53:30;4.63;;;4.22;;
6348;SDS011;3207;42.648;23.406;2023-05-01T08:55:59;4.93;;;4.53;;
6348;SDS011;3207;42.648;23.406;2023-05-01T08:58:31;4.95;;;4.25;;
6348;SDS011;3207;42.648;23.406;2023-05-01T09:01:00;5.28;;;4.80;;
6348;SDS011;3207;42.648;23.406;2023-05-01T09:03:29;4.72;;;4.32;;
6348;SDS011;3207;42.648;23.406;2023-05-01T09:05:57;5.30;;;4.80;;
6348;SDS011;3207;42.648;23.406;2023-05-01T09:08:27;4.25;;;3.92;;
6348;SDS011;3207;42.648;23.406;2023-05-01T09:10:54;4.90;;;4.40;;
6348;SDS011;3207;42.648;23.406;2023-05-01T09:13:24;3.83;;;3.40;;
6348;SDS011;3207;42.648;23.406;2023-05-01T09:15:53;5.07;;;3.42;;
6348;SDS011;3207;42.648;23.406;2023-05-01T09:18:19;6.47;;;3.90;;
6348;SDS011;3207;42.648;23.406;2023-05-01T09:20:47;4.22;;;3.92;;
6348;SDS011;3207;42.648;23.406;2023-05-01T09:23:14;4.57;;;4.18;;
6348;SDS011;3207;42.648;23.406;2023-05-01T09:25:41;5.60;;;3.90;;
6348;SDS011;3207;42.648;23.406;2023-05-01T09:28:08;4.30;;;3.90;;
6348;SDS011;3207;42.648;23.406;2023-05-01T09:30:35;6.82;;;4.50;;
6348;SDS011;3207;42.648;23.406;2023-05-01T09:33:08;4.25;;;3.85;;
6348;SDS011;3207;42.648;23.406;2023-05-01T09:35:48;6.25;;;4.32;;
6348;SDS011;3207;42.648;23.406;2023-05-01T09:38:16;4.65;;;4.25;;
6348;SDS011;3207;42.648;23.406;2023-05-01T09:40:44;6.38;;;5.10;;
6348;SDS011;3207;42.648;23.406;2023-05-01T09:43:11;5.63;;;5.07;;
6348;SDS011;3207;42.648;23.406;2023-05-01T09:45:40;5.38;;;4.93;;
6348;SDS011;3207;42.648;23.406;2023-05-01T09:48:09;5.47;;;4.70;;
6348;SDS011;3207;42.648;23.406;2023-05-01T09:50:37;4.47;;;4.07;;
6348;SDS011;3207;42.648;23.406;2023-05-01T09:53:06;5.53;;;4.72;;
6348;SDS011;3207;42.648;23.406;2023-05-01T09:55:33;5.25;;;4.75;;
6348;SDS011;3207;42.648;23.406;2023-05-01T09:58:00;5.93;;;4.90;;
6348;SDS011;3207;42.648;23.406;2023-05-01T10:00:27;7.88;;;5.22;;
6348;SDS011;3207;42.648;23.406;2023-05-01T10:02:54;5.03;;;4.20;;
6348;SDS011;3207;42.648;23.406;2023-05-01T10:05:22;8.73;;;4.00;;
6348;SDS011;3207;42.648;23.406;2023-05-01T10:07:54;5.65;;;3.85;;
6348;SDS011;3207;42.648;23.406;2023-05-01T10:10:22;3.53;;;3.22;;
6348;SDS011;3207;42.648;23.406;2023-05-01T10:12:49;4.13;;;2.97;;
6348;SDS011;3207;42.648;23.406;2023-05-01T10:15:16;3.75;;;3.45;;
6348;SDS011;3207;42.648;23.406;2023-05-01T10:17:44;3.90;;;3.50;;
6348;SDS011;3207;42.648;23.406;2023-05-01T10:20:12;5.57;;;3.47;;
6348;SDS011;3207;42.648;23.406;2023-05-01T10:22:40;5.75;;;5.25;;
6348;SDS011;3207;42.648;23.406;2023-05-01T10:25:07;3.38;;;3.17;;
6348;SDS011;3207;42.648;23.406;2023-05-01T10:27:37;6.53;;;3.88;;
6348;SDS011;3207;42.648;23.406;2023-05-01T10:30:05;4.30;;;4.00;;
6348;SDS011;3207;42.648;23.406;2023-05-01T10:32:33;5.32;;;3.90;;
6348;SDS011;3207;42.648;23.406;2023-05-01T10:35:03;4.63;;;3.13;;
6348;SDS011;3207;42.648;23.406;2023-05-01T10:37:35;3.65;;;3.35;;
6348;SDS011;3207;42.648;23.406;2023-05-01T10:43:13;4.57;;;4.18;;
6348;SDS011;3207;42.648;23.406;2023-05-01T10:45:42;4.28;;;3.72;;
6348;SDS011;3207;42.648;23.406;2023-05-01T10:48:09;4.28;;;3.88;;
6348;SDS011;3207;42.648;23.406;2023-05-01T10:53:33;3.75;;;3.45;;
6348;SDS011;3207;42.648;23.406;2023-05-01T10:56:00;3.38;;;3.00;;
6348;SDS011;3207;42.648;23.406;2023-05-01T11:01:31;4.15;;;3.58;;
6348;SDS011;3207;42.648;23.406;2023-05-01T11:04:00;3.25;;;2.95;;
6348;SDS011;3207;42.648;23.406;2023-05-01T11:06:29;3.30;;;3.00;;
6348;SDS011;3207;42.648;23.406;2023-05-01T11:08:56;3.30;;;3.00;;
6348;SDS011;3207;42.648;23.406;2023-05-01T11:14:16;5.72;;;3.25;;
6348;SDS011;3207;42.648;23.406;2023-05-01T11:16:43;3.88;;;3.42;;
6348;SDS011;3207;42.648;23.406;2023-05-01T11:22:16;3.53;;;2.92;;
6348;SDS011;3207;42.648;23.406;2023-05-01T11:24:44;5.00;;;3.55;;
6348;SDS011;3207;42.648;23.406;2023-05-01T11:27:12;4.22;;;3.42;;
6348;SDS011;3207;42.648;23.406;2023-05-01T11:29:41;3.58;;;3.28;;
6348;SDS011;3207;42.648;23.406;2023-05-01T11:32:11;3.72;;;3.28;;
6348;SDS011;3207;42.648;23.406;2023-05-01T11:34:41;4.90;;;3.20;;
6348;SDS011;3207;42.648;23.406;2023-05-01T11:37:08;4.47;;;3.50;;
6348;SDS011;3207;42.648;23.406;2023-05-01T11:39:36;3.05;;;2.85;;
6348;SDS011;3207;42.648;23.406;2023-05-01T11:42:06;5.65;;;5.05;;
6348;SDS011;3207;42.648;23.406;2023-05-01T11:44:32;3.13;;;2.83;;
6348;SDS011;3207;42.648;23.406;2023-05-01T11:47:01;6.28;;;4.90;;
6348;SDS011;3207;42.648;23.406;2023-05-01T11:49:27;4.75;;;4.35;;
6348;SDS011;3207;42.648;23.406;2023-05-01T11:51:57;3.50;;;3.20;;
6348;SDS011;3207;42.648;23.406;2023-05-01T11:54:25;3.28;;;2.97;;
6348;SDS011;3207;42.648;23.406;2023-05-01T11:56:58;7.28;;;3.70;;
6348;SDS011;3207;42.648;23.406;2023-05-01T11:59:26;5.38;;;4.97;;
6348;SDS011;3207;42.648;23.406;2023-05-01T12:01:53;4.07;;;3.78;;
6348;SDS011;3207;42.648;23.406;2023-05-01T12:04:24;5.20;;;4.70;;
6348;SDS011;3207;42.648;23.406;2023-05-01T12:06:53;3.45;;;2.70;;
6348;SDS011;3207;42.648;23.406;2023-05-01T12:09:20;4.28;;;3.65;;
6348;SDS011;3207;42.648;23.406;2023-05-01T12:11:48;5.18;;;3.40;;
6348;SDS011;3207;42.648;23.406;2023-05-01T12:14:17;4.35;;;3.95;;
6348;SDS011;3207;42.648;23.406;2023-05-01T12:16:45;3.20;;;2.90;;
6348;SDS011;3207;42.648;23.406;2023-05-01T12:19:13;3.40;;;3.15;;
6348;SDS011;3207;42.648;23.406;2023-05-01T12:21:43;2.92;;;2.72;;
6348;SDS011;3207;42.648;23.406;2023-05-01T12:24:10;3.17;;;2.88;;
6348;SDS011;3207;42.648;23.406;2023-05-01T12:26:39;5.88;;;4.80;;
6348;SDS011;3207;42.648;23.406;2023-05-01T12:29:06;3.88;;;3.38;;
6348;SDS011;3207;42.648;23.406;2023-05-01T12:31:34;3.03;;;2.80;;
6348;SDS011;3207;42.648;23.406;2023-05-01T12:34:02;2.78;;;2.58;;
6348;SDS011;3207;42.648;23.406;2023-05-01T12:36:30;3.15;;;2.90;;
6348;SDS011;3207;42.648;23.406;2023-05-01T12:39:00;5.28;;;2.92;;
6348;SDS011;3207;42.648;23.406;2023-05-01T12:41:35;9.57;;;2.72;;
6348;SDS011;3207;42.648;23.406;2023-05-01T12:44:14;3.10;;;2.80;;
6348;SDS011;3207;42.648;23.406;2023-05-01T12:46:52;2.92;;;2.72;;
6348;SDS011;3207;42.648;23.406;2023-05-01T12:49:19;3.30;;;3.00;;
6348;SDS011;3207;42.648;23.406;2023-05-01T12:51:47;3.47;;;3.17;;
6348;SDS011;3207;42.648;23.406;2023-05-01T12:54:18;2.95;;;2.58;;
6348;SDS011;3207;42.648;23.406;2023-05-01T12:56:46;3.33;;;2.72;;
6348;SDS011;3207;42.648;23.406;2023-05-01T12:59:18;3.50;;;3.00;;
6348;SDS011;3207;42.648;23.406;2023-05-01T13:01:47;2.95;;;2.75;;
6348;SDS011;3207;42.648;23.406;2023-05-01T13:04:19;2.55;;;2.35;;
6348;SDS011;3207;42.648;23.406;2023-05-01T13:06:46;5.45;;;2.92;;
6348;SDS011;3207;42.648;23.406;2023-05-01T13:09:13;4.18;;;3.20;;
6348;SDS011;3207;42.648;23.406;2023-05-01T13:11:43;4.90;;;3.00;;
6348;SDS011;3207;42.648;23.406;2023-05-01T13:14:22;3.75;;;3.40;;
6348;SDS011;3207;42.648;23.406;2023-05-01T13:16:49;4.22;;;3.05;;
6348;SDS011;3207;42.648;23.406;2023-05-01T13:19:23;4.53;;;3.40;;
6348;SDS011;3207;42.648;23.406;2023-05-01T13:21:52;2.80;;;2.60;;
6348;SDS011;3207;42.648;23.406;2023-05-01T13:24:19;4.50;;;2.67;;
6348;SDS011;3207;42.648;23.406;2023-05-01T13:26:48;3.88;;;2.53;;
6348;SDS011;3207;42.648;23.406;2023-05-01T13:29:23;2.80;;;2.60;;
6348;SDS011;3207;42.648;23.406;2023-05-01T13:31:50;2.33;;;2.20;;
6348;SDS011;3207;42.648;23.406;2023-05-01T13:34:19;2.65;;;2.45;;
6348;SDS011;3207;42.648;23.406;2023-05-01T13:36:51;2.88;;;2.67;;
6348;SDS011;3207;42.648;23.406;2023-05-01T13:39:19;3.22;;;2.80;;
6348;SDS011;3207;42.648;23.406;2023-05-01T13:41:47;6.60;;;2.67;;
6348;SDS011;3207;42.648;23.406;2023-05-01T13:44:16;3.97;;;3.10;;
6348;SDS011;3207;42.648;23.406;2023-05-01T13:46:44;2.97;;;2.78;;
6348;SDS011;3207;42.648;23.406;2023-05-01T13:49:11;4.45;;;2.70;;
6348;SDS011;3207;42.648;23.406;2023-05-01T13:51:40;5.68;;;5.28;;
6348;SDS011;3207;42.648;23.406;2023-05-01T13:54:08;3.17;;;2.88;;
6348;SDS011;3207;42.648;23.406;2023-05-01T13:56:37;3.80;;;2.67;;
6348;SDS011;3207;42.648;23.406;2023-05-01T13:59:07;2.90;;;2.58;;
6348;SDS011;3207;42.648;23.406;2023-05-01T14:01:37;3.67;;;3.15;;
6348;SDS011;3207;42.648;23.406;2023-05-01T14:04:07;7.25;;;2.88;;
6348;SDS011;3207;42.648;23.406;2023-05-01T14:06:35;4.82;;;3.35;;
6348;SDS011;3207;42.648;23.406;2023-05-01T14:09:06;2.83;;;2.60;;
6348;SDS011;3207;42.648;23.406;2023-05-01T14:11:33;4.55;;;2.95;;
6348;SDS011;3207;42.648;23.406;2023-05-01T14:14:08;3.08;;;2.80;;
6348;SDS011;3207;42.648;23.406;2023-05-01T14:16:35;2.65;;;2.45;;
6348;SDS011;3207;42.648;23.406;2023-05-01T14:19:06;3.15;;;2.50;;
6348;SDS011;3207;42.648;23.406;2023-05-01T14:21:33;3.58;;;2.88;;
6348;SDS011;3207;42.648;23.406;2023-05-01T14:24:06;5.38;;;2.90;;
6348;SDS011;3207;42.648;23.406;2023-05-01T14:26:32;3.25;;;2.95;;
6348;SDS011;3207;42.648;23.406;2023-05-01T14:28:59;2.70;;;2.50;;
6348;SDS011;3207;42.648;23.406;2023-05-01T14:31:28;3.28;;;2.80;;
6348;SDS011;3207;42.648;23.406;2023-05-01T14:33:56;4.63;;;2.42;;
6348;SDS011;3207;42.648;23.406;2023-05-01T14:36:24;2.67;;;2.47;;
6348;SDS011;3207;42.648;23.406;2023-05-01T14:38:54;2.90;;;2.50;;
6348;SDS011;3207;42.648;23.406;2023-05-01T14:41:21;2.05;;;1.95;;
6348;SDS011;3207;42.648;23.406;2023-05-01T14:43:48;3.75;;;2.65;;
6348;SDS011;3207;42.648;23.406;2023-05-01T14:46:30;2.58;;;2.35;;
6348;SDS011;3207;42.648;23.406;2023-05-01T14:48:59;5.65;;;2.30;;
6348;SDS011;3207;42.648;23.406;2023-05-01T14:51:27;3.05;;;2.80;;
6348;SDS011;3207;42.648;23.406;2023-05-01T14:53:55;2.90;;;2.60;;
6348;SDS011;3207;42.648;23.406;2023-05-01T14:56:22;4.00;;;2.50;;
6348;SDS011;3207;42.648;23.406;2023-05-01T14:58:49;3.28;;;2.60;;
6348;SDS011;3207;42.648;23.406;2023-05-01T15:01:15;2.53;;;2.30;;
6348;SDS011;3207;42.648;23.406;2023-05-01T15:03:44;2.83;;;2.63;;
6348;SDS011;3207;42.648;23.406;2023-05-01T15:06:11;2.80;;;2.60;;
6348;SDS011;3207;42.648;23.406;2023-05-01T15:08:38;2.92;;;2.72;;
6348;SDS011;3207;42.648;23.406;2023-05-01T15:11:05;3.78;;;2.80;;
6348;SDS011;3207;42.648;23.406;2023-05-01T15:13:32;4.35;;;2.53;;
6348;SDS011;3207;42.648;23.406;2023-05-01T15:16:00;3.70;;;3.40;;
6348;SDS011;3207;42.648;23.406;2023-05-01T15:18:27;5.60;;;3.20;;
6348;SDS011;3207;42.648;23.406;2023-05-01T15:20:55;4.32;;;2.75;;
6348;SDS011;3207;42.648;23.406;2023-05-01T15:23:22;3.08;;;2.75;;
6348;SDS011;3207;42.648;23.406;2023-05-01T15:25:51;5.75;;;2.90;;